Etusivu
METAR-TAF:

METAR-TAF

Lentoasemat :

Amman, Jordania

Leveyspiiri: 31-59N, Pituuspiiri: 035-59E, korkeus merenpinnasta: 767 m

Tämänhetkinen sää

Tämä raportti tehtiin 1 tunti ja 13 minuuttia sitten, kello 19.00 UTC
Tuuli 5 kn luoteesta
Lämpötila 19°C
Kosteus 60%
Ilmanpaine 1016 hPa
Näkyvyys: 6000 m

METAR: OJAM 251900Z 31005KT 6000 NSC 19/11 Q1016 NOSIG

Aika: 23:13 (20:13 UTC)

Sääennuste

Tämä raportti tehtiin 3 tuntia ja 27 minuuttia sitten, kello 16.46 UTC
Ennuste voimassa 25. päivästä klo 18 UTC - 26. päivään klo 24 UTC
Tuuli 4 kn lännestä
Näkyvyys: 6000 m
Tulossa
26. päivästä klo 07 UTC - 26. päivään klo 09 UTC
Tuuli 16 kn lännestä
Näkyvyys: 5000 m
usvaa
Ajoittain
26. päivästä klo 09 UTC - 26. päivään klo 24 UTC
Näkyvyys: 3000 m
laajalle levinnyttä pölyä

TAF: OJAM 251646Z 2518/2624 26004KT 6000 NSC BECMG 2607/2609 28016KT 5000 HZ TEMPO 2609/2624 3000 DU NSC

Säähavainnot ja -ennusteet yli 4000 lentoasemalta (METAR- ja TAF-raportit).

Käytössä olevat sääasemat on merkitty karttaan keltaisilla ja punaisilla pisteillä.

Aseta hiiri pisteen päälle nähdäksesi sääaseman nimen.

Klikkaa sitten nähdäksesi säähavainnot ja -ennusteet.

Kartan vaihtaminen: klikkaa mustalla rastilla varustettuja vihreitä pisteitä, niin voit zoomata sisään; viivalla varustettua vihreää pistettä, niin voit zoomata ulos tai vihreitä nuolia, niin pääset viereisille kartoille.


METAR-TAF: